createdAt,value
2017-11-07T00:01:42.894Z,9.57
2017-11-07T00:04:11.218Z,15.43
2017-11-07T00:06:39.549Z,10.90
2017-11-07T00:09:07.859Z,9.90
2017-11-07T00:11:36.201Z,15.60
2017-11-07T00:14:04.536Z,10.23
2017-11-07T00:16:32.861Z,10.03
2017-11-07T00:19:01.949Z,11.27
2017-11-07T00:21:30.272Z,8.87
2017-11-07T00:23:58.663Z,8.00
2017-11-07T00:26:26.963Z,6.77
2017-11-07T00:28:55.288Z,10.70
2017-11-07T00:31:23.589Z,9.33
2017-11-07T00:33:51.908Z,11.60
2017-11-07T00:36:20.218Z,10.17
2017-11-07T00:38:48.520Z,7.10
2017-11-07T00:41:16.873Z,13.73
2017-11-07T00:43:45.176Z,7.73
2017-11-07T00:46:13.511Z,17.03
2017-11-07T00:48:42.598Z,10.93
2017-11-07T00:51:10.920Z,10.03
2017-11-07T00:53:39.227Z,7.77
2017-11-07T00:56:07.562Z,9.83
2017-11-07T00:58:35.881Z,9.43
2017-11-07T01:01:04.184Z,10.77
2017-11-07T01:03:32.521Z,10.80
2017-11-07T01:06:00.827Z,18.23
2017-11-07T01:08:29.162Z,11.83
2017-11-07T01:10:57.468Z,16.70
2017-11-07T01:13:25.798Z,8.50
2017-11-07T01:15:54.117Z,14.80
2017-11-07T01:18:22.438Z,12.23
2017-11-07T01:20:51.518Z,11.27
2017-11-07T01:23:19.850Z,20.17
2017-11-07T01:25:48.162Z,17.53
2017-11-07T01:28:16.505Z,14.50
2017-11-07T01:30:44.813Z,14.63
2017-11-07T01:33:13.123Z,15.97
2017-11-07T01:35:41.445Z,12.90
2017-11-07T01:38:09.754Z,10.50
2017-11-07T01:40:38.078Z,10.90
2017-11-07T01:43:06.392Z,17.93
2017-11-07T01:45:34.717Z,13.40
2017-11-07T01:48:03.789Z,13.07
2017-11-07T01:50:32.118Z,14.60
2017-11-07T01:53:00.431Z,13.50
2017-11-07T01:55:28.774Z,17.33
2017-11-07T01:57:57.084Z,12.03
2017-11-07T02:00:25.383Z,17.83
2017-11-07T02:02:56.840Z,15.80
2017-11-07T02:05:25.159Z,12.80
2017-11-07T02:07:53.487Z,11.87
2017-11-07T02:10:21.775Z,14.63
2017-11-07T02:12:50.101Z,15.20
2017-11-07T02:15:18.405Z,16.43
2017-11-07T02:17:46.733Z,16.03
2017-11-07T02:20:15.850Z,14.63
2017-11-07T02:22:44.213Z,18.50
2017-11-07T02:25:12.542Z,17.40
2017-11-07T02:27:40.851Z,16.50
2017-11-07T02:30:09.182Z,12.40
2017-11-07T02:32:37.516Z,16.10
2017-11-07T02:35:06.642Z,13.30
2017-11-07T02:37:34.967Z,13.87
2017-11-07T02:40:03.309Z,15.27
2017-11-07T02:42:31.634Z,18.00
2017-11-07T02:44:59.966Z,16.80
2017-11-07T02:47:28.278Z,12.20
2017-11-07T02:49:56.597Z,17.97
2017-11-07T02:52:24.962Z,13.77
2017-11-07T02:54:54.090Z,17.97
2017-11-07T02:57:22.387Z,16.43
2017-11-07T02:59:51.458Z,18.07
2017-11-07T03:02:19.789Z,21.07
2017-11-07T03:04:48.096Z,19.13
2017-11-07T03:07:16.445Z,17.20
2017-11-07T03:09:44.758Z,19.67
2017-11-07T03:12:13.858Z,21.23
2017-11-07T03:14:42.943Z,18.30
2017-11-07T03:17:12.047Z,20.63
2017-11-07T03:19:41.118Z,26.53
2017-11-07T03:22:09.447Z,20.47
2017-11-07T03:24:37.773Z,19.83
2017-11-07T03:27:06.141Z,16.47
2017-11-07T03:29:34.520Z,17.13
2017-11-07T03:32:02.905Z,28.83
2017-11-07T03:34:31.383Z,24.30
2017-11-07T03:36:59.693Z,21.63
2017-11-07T03:39:28.815Z,27.83
2017-11-07T03:41:57.127Z,17.63
2017-11-07T03:44:25.453Z,18.17
2017-11-07T03:46:54.522Z,19.60
2017-11-07T03:49:22.859Z,19.20
2017-11-07T03:51:51.953Z,16.83
2017-11-07T03:54:20.282Z,22.37
2017-11-07T03:56:48.602Z,16.60
2017-11-07T03:59:16.926Z,23.70
2017-11-07T04:01:45.237Z,19.97
2017-11-07T04:04:14.335Z,13.83
2017-11-07T04:06:42.656Z,25.80
2017-11-07T04:09:10.976Z,18.30
2017-11-07T04:11:39.300Z,21.13
2017-11-07T04:14:07.605Z,18.77
2017-11-07T04:16:35.938Z,18.07
2017-11-07T04:19:04.258Z,21.33
2017-11-07T04:21:32.585Z,23.13
2017-11-07T04:24:00.900Z,25.03
2017-11-07T04:26:29.246Z,22.53
2017-11-07T04:28:58.313Z,19.40
2017-11-07T04:31:26.638Z,26.87
2017-11-07T04:33:54.950Z,25.40
2017-11-07T04:36:23.274Z,20.93
2017-11-07T04:38:52.337Z,25.00
2017-11-07T04:41:20.656Z,19.77
2017-11-07T04:43:48.997Z,19.93
2017-11-07T04:46:17.303Z,21.53
2017-11-07T04:48:46.403Z,22.00
2017-11-07T04:51:15.476Z,22.70
2017-11-07T04:53:43.818Z,25.80
2017-11-07T04:56:12.125Z,22.47
2017-11-07T04:58:40.455Z,22.33
2017-11-07T05:01:08.770Z,19.63
2017-11-07T05:03:37.103Z,21.50
2017-11-07T05:06:05.409Z,25.43
2017-11-07T05:08:33.753Z,22.50
2017-11-07T05:11:02.823Z,23.40
2017-11-07T05:13:31.125Z,27.73
2017-11-07T05:16:00.232Z,23.50
2017-11-07T05:18:28.534Z,23.20
2017-11-07T05:20:56.877Z,20.70
2017-11-07T05:23:25.958Z,25.93
2017-11-07T05:25:55.054Z,21.90
2017-11-07T05:28:23.364Z,28.70
2017-11-07T05:31:12.940Z,24.57
2017-11-07T05:33:41.241Z,27.73
2017-11-07T05:36:09.607Z,23.87
2017-11-07T05:38:37.939Z,23.47
2017-11-07T05:41:06.254Z,23.13
2017-11-07T05:43:34.577Z,23.23
2017-11-07T05:46:02.883Z,24.47
2017-11-07T05:48:31.994Z,23.13
2017-11-07T05:51:00.338Z,19.80
2017-11-07T05:53:29.555Z,27.53
2017-11-07T05:55:57.889Z,22.77
2017-11-07T05:58:26.235Z,26.23
2017-11-07T06:00:54.546Z,21.80
2017-11-07T06:03:22.881Z,23.43
2017-11-07T06:05:51.965Z,24.27
2017-11-07T06:08:20.329Z,26.90
2017-11-07T06:10:48.642Z,22.07
2017-11-07T06:13:16.947Z,19.07
2017-11-07T06:15:45.283Z,33.33
2017-11-07T06:18:14.363Z,24.00
2017-11-07T06:20:42.694Z,25.27
2017-11-07T06:23:11.006Z,24.30
2017-11-07T06:25:39.320Z,23.40
2017-11-07T06:28:08.397Z,21.73
2017-11-07T06:30:36.731Z,23.80
2017-11-07T06:33:05.034Z,22.50
2017-11-07T06:35:33.361Z,27.87
2017-11-07T06:38:02.435Z,27.70
2017-11-07T06:40:30.769Z,22.17
2017-11-07T06:42:59.071Z,26.73
2017-11-07T06:45:27.415Z,26.67
2017-11-07T06:47:55.722Z,23.53
2017-11-07T06:50:24.069Z,31.47
2017-11-07T06:52:52.386Z,26.67
2017-11-07T06:55:20.686Z,29.33
2017-11-07T06:57:49.012Z,26.33
2017-11-07T07:00:17.323Z,21.63
2017-11-07T07:02:45.659Z,28.07
2017-11-07T07:05:13.956Z,23.03
2017-11-07T07:07:42.281Z,23.20
2017-11-07T07:10:11.359Z,26.43
2017-11-07T07:12:39.701Z,25.40
2017-11-07T07:15:08.016Z,23.70
2017-11-07T07:17:36.355Z,20.63
2017-11-07T07:20:04.657Z,20.03
2017-11-07T07:22:33.019Z,23.73
2017-11-07T07:25:01.329Z,28.70
2017-11-07T07:27:29.632Z,27.03
2017-11-07T07:29:58.733Z,24.27
2017-11-07T07:32:27.812Z,20.70
2017-11-07T07:34:56.927Z,22.73
2017-11-07T07:37:26.030Z,28.03
2017-11-07T07:39:54.478Z,27.23
2017-11-07T07:42:22.782Z,29.37
2017-11-07T07:44:51.877Z,29.63
2017-11-07T07:47:20.954Z,53.83
2017-11-07T07:49:49.277Z,26.97
2017-11-07T07:52:17.613Z,24.13
2017-11-07T07:54:45.951Z,24.30
2017-11-07T07:57:15.078Z,28.23
2017-11-07T07:59:43.429Z,26.33
2017-11-07T08:02:11.743Z,30.30
2017-11-07T08:04:40.060Z,26.10
2017-11-07T08:07:08.370Z,30.83
2017-11-07T08:09:36.700Z,30.37
2017-11-07T08:12:05.771Z,27.90
2017-11-07T08:14:34.099Z,27.67
2017-11-07T08:17:02.408Z,28.00
2017-11-07T08:19:30.740Z,17.40
2017-11-07T08:21:59.075Z,20.23
2017-11-07T08:24:27.409Z,22.93
2017-11-07T08:26:55.718Z,21.43
2017-11-07T08:29:24.058Z,19.93
2017-11-07T08:31:52.357Z,33.17
2017-11-07T08:34:20.666Z,24.37
2017-11-07T08:36:48.991Z,24.17
2017-11-07T08:39:17.311Z,16.17
2017-11-07T08:41:46.548Z,20.23
2017-11-07T08:44:15.622Z,15.87
2017-11-07T08:46:43.946Z,18.37
2017-11-07T08:49:12.253Z,21.67
2017-11-07T08:51:40.588Z,24.70
2017-11-07T08:54:09.658Z,10.03
2017-11-07T08:56:37.985Z,24.73
2017-11-07T08:59:06.289Z,22.23
2017-11-07T09:01:34.630Z,23.50
2017-11-07T09:04:02.939Z,19.20
2017-11-07T09:06:31.236Z,24.57
2017-11-07T09:08:59.563Z,27.43
2017-11-07T09:11:27.881Z,25.67
2017-11-07T09:13:56.216Z,26.83
2017-11-07T09:16:24.542Z,24.73
2017-11-07T09:18:52.880Z,19.90
2017-11-07T09:21:21.182Z,21.00
2017-11-07T09:23:49.501Z,29.43
2017-11-07T09:26:17.814Z,21.30
2017-11-07T09:28:46.143Z,20.37
2017-11-07T09:31:14.451Z,26.67
2017-11-07T09:33:43.572Z,22.00
2017-11-07T09:36:11.903Z,20.27
2017-11-07T09:38:40.231Z,21.73
2017-11-07T09:41:08.562Z,20.63
2017-11-07T09:43:36.871Z,18.17
2017-11-07T09:46:05.965Z,22.00
2017-11-07T09:48:35.047Z,21.20
2017-11-07T09:51:03.369Z,20.60
2017-11-07T09:53:31.699Z,18.27
2017-11-07T09:56:00.032Z,26.80
2017-11-07T09:58:28.342Z,18.60
2017-11-07T10:00:56.686Z,19.93
2017-11-07T10:03:24.996Z,22.90
2017-11-07T10:05:53.331Z,28.23
2017-11-07T10:08:21.647Z,22.50
2017-11-07T10:10:49.966Z,21.63
2017-11-07T10:13:24.909Z,21.87
2017-11-07T10:15:53.253Z,22.33
2017-11-07T10:18:21.566Z,15.87
2017-11-07T10:20:49.903Z,18.90
2017-11-07T10:23:18.222Z,26.77
2017-11-07T10:25:47.316Z,22.00
2017-11-07T10:28:16.385Z,23.00
2017-11-07T10:30:44.710Z,19.30
2017-11-07T10:33:13.017Z,24.20
2017-11-07T10:35:41.348Z,19.40
2017-11-07T10:38:09.668Z,17.53
2017-11-07T10:40:37.990Z,13.60
2017-11-07T10:43:07.067Z,23.33
2017-11-07T10:45:36.387Z,21.20
2017-11-07T10:48:05.484Z,20.13
2017-11-07T10:50:34.583Z,20.67
2017-11-07T10:53:03.652Z,18.57
2017-11-07T10:55:31.985Z,20.33
2017-11-07T10:58:00.316Z,20.13
2017-11-07T11:00:28.649Z,16.27
2017-11-07T11:02:56.961Z,18.50
2017-11-07T11:05:25.279Z,13.37
2017-11-07T11:07:57.298Z,13.90
2017-11-07T11:10:25.605Z,19.00
2017-11-07T11:12:53.937Z,18.37
2017-11-07T11:15:22.391Z,19.43
2017-11-07T11:17:50.729Z,15.27
2017-11-07T11:20:19.039Z,18.23
2017-11-07T11:22:48.137Z,15.63
2017-11-07T11:25:16.456Z,17.00
2017-11-07T11:27:44.785Z,19.20
2017-11-07T11:30:13.886Z,19.30
2017-11-07T11:32:42.991Z,15.80
2017-11-07T11:35:12.062Z,18.00
2017-11-07T11:37:40.428Z,21.63
2017-11-07T11:40:08.735Z,15.60
2017-11-07T11:42:37.830Z,17.10
2017-11-07T11:45:06.938Z,16.53
2017-11-07T11:47:35.244Z,16.83
2017-11-07T11:50:03.576Z,19.70
2017-11-07T11:52:32.658Z,13.70
2017-11-07T11:55:00.993Z,18.90
2017-11-07T11:57:29.300Z,19.33
2017-11-07T11:59:57.638Z,16.63
2017-11-07T12:02:25.955Z,19.87
2017-11-07T12:04:54.281Z,15.83
2017-11-07T12:07:23.369Z,19.43
2017-11-07T12:09:52.446Z,17.63
2017-11-07T12:12:20.783Z,17.53
2017-11-07T12:14:49.090Z,17.10
2017-11-07T12:17:17.413Z,19.67
2017-11-07T12:19:45.717Z,17.47
2017-11-07T12:22:14.058Z,19.63
2017-11-07T12:24:43.130Z,18.90
2017-11-07T12:27:11.470Z,14.67
2017-11-07T12:29:39.791Z,15.90
2017-11-07T12:32:08.127Z,20.13
2017-11-07T12:34:36.444Z,16.23
2017-11-07T12:37:04.769Z,19.90
2017-11-07T12:39:33.071Z,13.23
2017-11-07T12:42:01.410Z,18.93
2017-11-07T12:44:30.483Z,19.17
2017-11-07T12:46:58.819Z,16.67
2017-11-07T12:49:27.123Z,16.83
2017-11-07T12:52:00.098Z,20.73
2017-11-07T12:54:28.402Z,19.73
2017-11-07T12:56:56.738Z,19.83
2017-11-07T12:59:25.055Z,20.40
2017-11-07T13:01:53.381Z,21.43
2017-11-07T13:04:21.690Z,18.07
2017-11-07T13:06:50.029Z,18.03
2017-11-07T13:09:18.333Z,19.70
2017-11-07T13:11:46.679Z,17.87
2017-11-07T13:14:14.990Z,16.47
2017-11-07T13:16:43.339Z,17.53
2017-11-07T13:19:11.642Z,18.37
2017-11-07T13:21:39.952Z,13.80
2017-11-07T13:24:08.282Z,19.80
2017-11-07T13:26:36.593Z,18.10
2017-11-07T13:29:04.923Z,16.83
2017-11-07T13:31:33.995Z,18.83
2017-11-07T13:34:02.317Z,13.53
2017-11-07T13:36:30.627Z,18.87
2017-11-07T13:38:58.963Z,17.53
2017-11-07T13:41:27.274Z,15.40
2017-11-07T13:43:55.601Z,18.73
2017-11-07T13:46:24.686Z,21.03
2017-11-07T13:48:53.043Z,15.10
2017-11-07T13:51:21.338Z,17.13
2017-11-07T13:53:49.637Z,21.40
2017-11-07T13:56:18.736Z,19.00
2017-11-07T13:58:47.057Z,22.13
2017-11-07T14:01:15.390Z,17.70
2017-11-07T14:03:44.462Z,21.93
2017-11-07T14:06:12.789Z,20.50
2017-11-07T14:08:41.103Z,20.87
2017-11-07T14:11:09.430Z,19.27
2017-11-07T14:13:37.755Z,18.67
2017-11-07T14:16:06.095Z,19.37
2017-11-07T14:18:34.411Z,20.33
2017-11-07T14:21:02.756Z,21.33
2017-11-07T14:23:31.063Z,19.03
2017-11-07T14:25:59.407Z,23.23
2017-11-07T14:28:27.724Z,21.73
2017-11-07T14:30:56.038Z,19.20
2017-11-07T14:33:24.367Z,24.70
2017-11-07T14:35:52.678Z,20.70
2017-11-07T14:38:21.014Z,20.00
2017-11-07T14:40:49.324Z,25.03
2017-11-07T14:43:17.663Z,20.17
2017-11-07T14:45:45.969Z,23.40
2017-11-07T14:48:14.297Z,22.57
2017-11-07T14:50:43.381Z,18.37
2017-11-07T14:53:12.747Z,22.40
2017-11-07T14:55:41.082Z,16.73
2017-11-07T14:58:09.417Z,26.30
2017-11-07T15:00:37.741Z,22.63
2017-11-07T15:03:06.839Z,20.37
2017-11-07T15:05:35.905Z,21.63
2017-11-07T15:08:04.241Z,22.70
2017-11-07T15:10:32.541Z,22.77
2017-11-07T15:13:00.874Z,21.00
2017-11-07T15:15:29.191Z,21.90
2017-11-07T15:17:57.520Z,13.27
2017-11-07T15:20:26.594Z,21.90
2017-11-07T15:22:54.927Z,24.40
2017-11-07T15:25:23.231Z,21.67
2017-11-07T15:27:51.566Z,24.20
2017-11-07T15:30:19.873Z,26.57
2017-11-07T15:32:48.198Z,20.70
2017-11-07T15:35:16.513Z,22.40
2017-11-07T15:37:44.837Z,22.93
2017-11-07T15:40:13.140Z,24.47
2017-11-07T15:42:42.238Z,23.63
2017-11-07T15:45:10.559Z,26.70
2017-11-07T15:47:38.893Z,22.03
2017-11-07T15:50:07.223Z,20.13
2017-11-07T15:52:35.577Z,21.07
2017-11-07T15:55:03.876Z,24.23
2017-11-07T15:57:32.215Z,28.23
2017-11-07T16:00:01.280Z,28.07
2017-11-07T16:02:30.399Z,31.17
2017-11-07T16:04:59.474Z,28.03
2017-11-07T16:07:27.820Z,29.10
2017-11-07T16:09:56.127Z,24.90
2017-11-07T16:12:24.453Z,25.80
2017-11-07T16:14:52.770Z,28.50
2017-11-07T16:17:21.110Z,25.00
2017-11-07T16:19:49.425Z,27.97
2017-11-07T16:22:17.762Z,28.20
2017-11-07T16:24:46.076Z,19.33
2017-11-07T16:27:14.408Z,51.23
2017-11-07T16:29:42.731Z,81.20
2017-11-07T16:32:11.069Z,65.77
2017-11-07T16:34:40.148Z,19.47
2017-11-07T16:37:09.254Z,31.30
2017-11-07T16:39:38.338Z,26.40
2017-11-07T16:42:06.669Z,24.20
2017-11-07T16:44:34.976Z,28.17
2017-11-07T16:47:03.312Z,25.07
2017-11-07T16:49:31.621Z,25.50
2017-11-07T16:51:59.953Z,28.13
2017-11-07T16:54:29.026Z,29.50
2017-11-07T16:56:57.362Z,26.93
2017-11-07T16:59:25.666Z,27.63
2017-11-07T17:01:53.998Z,31.17
2017-11-07T17:04:22.311Z,27.53
2017-11-07T17:06:50.646Z,27.00
2017-11-07T17:09:18.949Z,27.33
2017-11-07T17:11:48.922Z,28.93
2017-11-07T17:14:17.246Z,29.90
2017-11-07T17:16:46.354Z,28.07
2017-11-07T17:19:14.657Z,28.70
2017-11-07T17:21:43.024Z,28.93
2017-11-07T17:24:11.326Z,26.73
2017-11-07T17:26:40.406Z,25.13
2017-11-07T17:29:08.735Z,31.40
2017-11-07T17:31:37.040Z,25.97
2017-11-07T17:34:05.368Z,34.50
2017-11-07T17:36:34.444Z,29.97
2017-11-07T17:39:02.775Z,27.70
2017-11-07T17:41:31.171Z,25.50
2017-11-07T17:43:59.552Z,27.33
2017-11-07T17:46:27.864Z,27.30
2017-11-07T17:48:56.200Z,28.60
2017-11-07T17:51:24.516Z,30.33
2017-11-07T17:53:52.848Z,30.27
2017-11-07T17:56:21.162Z,32.77
2017-11-07T17:58:49.502Z,31.30
2017-11-07T18:01:17.806Z,31.97
2017-11-07T18:03:46.144Z,37.63
2017-11-07T18:06:14.454Z,28.40
2017-11-07T18:08:42.780Z,25.70
2017-11-07T18:11:11.863Z,24.70
2017-11-07T18:13:40.203Z,28.03
2017-11-07T18:16:08.519Z,28.20
2017-11-07T18:18:37.647Z,29.40
2017-11-07T18:21:06.866Z,29.17
2017-11-07T18:23:35.210Z,29.67
2017-11-07T18:26:04.290Z,29.10
2017-11-07T18:28:33.407Z,27.70
2017-11-07T18:31:02.485Z,29.33
2017-11-07T18:33:30.819Z,27.27
2017-11-07T18:35:59.137Z,27.73
2017-11-07T18:38:27.457Z,31.30
2017-11-07T18:40:55.774Z,32.37
2017-11-07T18:43:24.111Z,35.80
2017-11-07T18:45:52.427Z,34.30
2017-11-07T18:48:20.760Z,28.90
2017-11-07T18:50:49.083Z,26.63
2017-11-07T18:53:17.430Z,26.30
2017-11-07T18:55:45.738Z,30.50
2017-11-07T18:58:14.076Z,28.27
2017-11-07T19:00:43.153Z,24.83
2017-11-07T19:03:11.496Z,34.97
2017-11-07T19:05:39.797Z,32.57
2017-11-07T19:08:08.123Z,26.07
2017-11-07T19:10:36.433Z,27.77
2017-11-07T19:13:04.765Z,27.60
2017-11-07T19:15:33.546Z,29.67
2017-11-07T19:18:02.644Z,33.07
2017-11-07T19:20:31.722Z,35.07
2017-11-07T19:23:00.066Z,32.63
2017-11-07T19:25:28.374Z,35.87
2017-11-07T19:27:56.718Z,36.47
2017-11-07T19:30:25.031Z,35.97
2017-11-07T19:32:54.160Z,36.27
2017-11-07T19:35:22.466Z,33.17
2017-11-07T19:37:50.807Z,32.13
2017-11-07T19:40:19.890Z,32.97
2017-11-07T19:42:49.000Z,34.10
2017-11-07T19:45:17.339Z,34.27
2017-11-07T19:47:45.660Z,33.57
2017-11-07T19:50:14.729Z,33.83
2017-11-07T19:52:43.061Z,33.00
2017-11-07T19:55:12.135Z,49.03
2017-11-07T19:57:41.235Z,44.07
2017-11-07T20:00:09.543Z,28.70
2017-11-07T20:02:37.907Z,32.00
2017-11-07T20:05:06.221Z,35.97
2017-11-07T20:07:34.567Z,39.10
2017-11-07T20:10:02.882Z,39.60
2017-11-07T20:12:31.215Z,34.87
2017-11-07T20:14:59.549Z,45.13
2017-11-07T20:17:27.864Z,43.00
2017-11-07T20:19:56.198Z,45.90
2017-11-07T20:22:24.509Z,36.97
2017-11-07T20:24:53.614Z,35.33
2017-11-07T20:27:22.690Z,35.23
2017-11-07T20:29:51.020Z,39.00
2017-11-07T20:32:19.331Z,35.63
2017-11-07T20:34:47.670Z,29.97
2017-11-07T20:37:15.990Z,34.50
2017-11-07T20:39:44.318Z,30.20
2017-11-07T20:42:12.626Z,28.57
2017-11-07T20:44:40.956Z,32.47
2017-11-07T20:47:09.266Z,36.23
2017-11-07T20:49:37.615Z,34.03
2017-11-07T20:52:05.925Z,33.77
2017-11-07T20:54:34.265Z,31.83
2017-11-07T20:57:03.339Z,43.90
2017-11-07T20:59:31.675Z,34.63
2017-11-07T21:01:59.994Z,39.40
2017-11-07T21:04:28.342Z,34.77
2017-11-07T21:06:56.655Z,31.10
2017-11-07T21:09:24.963Z,34.30
2017-11-07T21:11:53.295Z,32.50
2017-11-07T21:14:21.609Z,31.43
2017-11-07T21:16:50.715Z,30.77
2017-11-07T21:19:19.791Z,31.47
2017-11-07T21:21:50.941Z,33.47
2017-11-07T21:24:20.023Z,32.57
2017-11-07T21:26:48.352Z,32.70
2017-11-07T21:29:16.665Z,30.97
2017-11-07T21:31:45.008Z,30.93
2017-11-07T21:34:19.638Z,29.20
2017-11-07T21:36:47.958Z,34.43
2017-11-07T21:39:16.265Z,42.07
2017-11-07T21:41:45.381Z,33.40
2017-11-07T21:44:13.688Z,37.63
2017-11-07T21:46:42.005Z,36.10
2017-11-07T21:49:11.098Z,39.27
2017-11-07T21:51:39.410Z,40.03
2017-11-07T21:54:07.742Z,34.83
2017-11-07T21:56:36.056Z,34.60
2017-11-07T21:59:04.395Z,40.33
2017-11-07T22:01:32.712Z,37.87
2017-11-07T22:04:01.805Z,34.47
2017-11-07T22:06:30.118Z,31.50
2017-11-07T22:08:58.450Z,35.67
2017-11-07T22:11:27.534Z,33.67
2017-11-07T22:13:55.861Z,45.23
2017-11-07T22:16:24.621Z,36.00
2017-11-07T22:18:53.718Z,34.43
2017-11-07T22:21:22.800Z,32.67
2017-11-07T22:23:51.124Z,34.50
2017-11-07T22:26:19.438Z,35.90
2017-11-07T22:28:47.793Z,35.03
2017-11-07T22:31:16.105Z,38.00
2017-11-07T22:33:44.423Z,36.20
2017-11-07T22:36:12.800Z,34.27
2017-11-07T22:38:41.100Z,36.70
2017-11-07T22:41:09.435Z,35.97
2017-11-07T22:43:38.507Z,39.33
2017-11-07T22:46:06.829Z,36.33
2017-11-07T22:48:35.144Z,32.27
2017-11-07T22:51:03.480Z,37.37
2017-11-07T22:53:32.552Z,33.80
2017-11-07T22:56:01.671Z,36.00
2017-11-07T22:58:30.753Z,40.07
2017-11-07T23:00:59.853Z,42.80
2017-11-07T23:03:28.931Z,38.17
2017-11-07T23:06:00.263Z,40.53
2017-11-07T23:08:28.576Z,39.40
2017-11-07T23:10:57.678Z,33.20
2017-11-07T23:13:26.785Z,36.53
2017-11-07T23:15:55.886Z,39.90
2017-11-07T23:18:24.206Z,41.20
2017-11-07T23:20:52.530Z,40.50
2017-11-07T23:23:21.623Z,38.80
2017-11-07T23:25:50.717Z,44.60
2017-11-07T23:28:19.791Z,38.30
2017-11-07T23:30:48.112Z,39.07
2017-11-07T23:33:16.422Z,41.00
2017-11-07T23:35:44.745Z,39.43
2017-11-07T23:38:13.808Z,35.00
2017-11-07T23:40:42.151Z,33.57
2017-11-07T23:43:10.458Z,36.80
2017-11-07T23:45:38.809Z,43.07
2017-11-07T23:48:07.126Z,43.20
2017-11-07T23:50:35.470Z,42.90
2017-11-07T23:53:03.778Z,41.50
2017-11-07T23:55:32.759Z,37.87
2017-11-07T23:58:01.079Z,39.43
